Time;durP1;ratioP1;P1;durP2;ratioP2;P2;SDS_P1;SDS_P2;PMS_P1;PMS_P2;Temp;Humidity;BMP_temperature;BMP_pressure;BME280_temperature;BME280_humidity;BME280_pressure;Samples;Min_cycle;Max_cycle;Signal;HPM_P1;HPM_P2
2021/07/18 00:00:11;;;;;;;1.40;1.30;;;22.60;64.30;;;;;;5033382;28;20534;-68
2021/07/18 00:02:37;;;;;;;1.30;1.20;;;22.60;65.10;;;;;;5033311;28;20254;-68
2021/07/18 00:05:03;;;;;;;1.63;1.52;;;22.60;64.30;;;;;;5033802;28;20690;-69
2021/07/18 00:07:28;;;;;;;2.25;1.58;;;22.60;64.40;;;;;;5032689;28;20172;-68
2021/07/18 00:09:54;;;;;;;2.08;1.85;;;22.60;64.40;;;;;;5033213;28;20275;-68
2021/07/18 00:12:19;;;;;;;1.60;1.50;;;22.60;64.30;;;;;;5032512;28;20222;-68
2021/07/18 00:14:45;;;;;;;2.05;1.65;;;22.60;64.60;;;;;;5033604;28;20543;-68
2021/07/18 00:17:11;;;;;;;1.63;1.52;;;22.60;64.50;;;;;;5033302;28;20279;-69
2021/07/18 00:19:36;;;;;;;1.70;1.60;;;22.60;64.40;;;;;;5032601;28;20179;-68
2021/07/18 00:22:02;;;;;;;1.88;1.75;;;22.60;65.30;;;;;;5033345;28;20638;-68
2021/07/18 00:24:27;;;;;;;1.83;1.65;;;22.60;64.70;;;;;;5032765;28;20207;-67
2021/07/18 00:26:53;;;;;;;2.03;1.50;;;22.60;64.60;;;;;;5032862;28;20183;-67
2021/07/18 00:29:18;;;;;;;1.60;1.50;;;22.60;64.50;;;;;;5032931;28;20176;-67
2021/07/18 00:31:44;;;;;;;1.88;1.65;;;22.60;64.60;;;;;;5032977;28;20199;-67
2021/07/18 00:34:10;;;;;;;1.65;1.55;;;22.50;64.50;;;;;;5032768;28;20630;-67
2021/07/18 00:36:37;;;;;;;2.05;1.80;;;22.60;64.60;;;;;;5032750;28;20234;-68
2021/07/18 00:39:02;;;;;;;2.28;1.63;;;22.60;64.70;;;;;;5031888;28;20179;-68
2021/07/18 00:41:28;;;;;;;2.17;1.42;;;22.50;64.70;;;;;;5032386;28;20186;-68
2021/07/18 00:43:53;;;;;;;2.10;1.42;;;22.60;64.70;;;;;;5032799;28;20235;-68
2021/07/18 00:46:19;;;;;;;1.60;1.40;;;22.50;64.50;;;;;;5032592;28;20200;-68
2021/07/18 00:48:44;;;;;;;2.42;1.58;;;22.50;64.50;;;;;;5032489;28;20270;-67
2021/07/18 00:51:10;;;;;;;1.90;1.70;;;22.60;64.60;;;;;;5032864;28;20283;-67
2021/07/18 00:53:36;;;;;;;1.50;1.30;;;22.50;64.60;;;;;;5014819;28;20672;-67
2021/07/18 00:56:01;;;;;;;1.60;1.50;;;22.50;64.70;;;;;;5032364;28;20179;-67
2021/07/18 00:58:28;;;;;;;1.42;1.33;;;22.50;64.70;;;;;;5014987;28;20200;-68
2021/07/18 01:00:54;;;;;;;1.88;1.77;;;22.50;64.70;;;;;;5032935;28;20184;-67
2021/07/18 01:03:20;;;;;;;1.70;1.60;;;22.50;64.70;;;;;;5014355;28;20532;-68
2021/07/18 01:05:45;;;;;;;1.77;1.67;;;22.50;64.70;;;;;;5015009;28;20226;-67
2021/07/18 01:08:11;;;;;;;1.33;1.23;;;22.50;64.70;;;;;;5032761;28;20182;-68
2021/07/18 01:10:36;;;;;;;2.17;2.00;;;22.50;64.80;;;;;;5031729;28;20192;-68
2021/07/18 01:13:02;;;;;;;2.03;1.67;;;22.50;64.70;;;;;;5032631;28;20588;-67
2021/07/18 01:15:27;;;;;;;1.77;1.55;;;22.50;64.70;;;;;;5032576;28;20175;-68
2021/07/18 01:17:53;;;;;;;2.25;2.05;;;22.50;64.70;;;;;;5014875;28;20210;-69
2021/07/18 01:20:18;;;;;;;1.80;1.70;;;22.50;64.70;;;;;;5014761;28;20258;-68
2021/07/18 01:22:44;;;;;;;1.85;1.75;;;22.50;65.60;;;;;;5032146;28;20203;-68
2021/07/18 01:25:10;;;;;;;2.15;1.40;;;22.50;64.80;;;;;;5015207;28;20178;-67
2021/07/18 01:27:36;;;;;;;2.30;1.52;;;22.50;64.70;;;;;;5014672;28;20188;-67
2021/07/18 01:30:07;;;;;;;1.50;1.40;;;22.50;64.80;;;;;;5032204;28;20172;-67
2021/07/18 01:32:32;;;;;;;1.95;1.80;;;22.50;64.80;;;;;;5032428;28;20218;-67
2021/07/18 01:34:58;;;;;;;2.17;1.70;;;22.50;64.80;;;;;;5032322;28;20164;-68
2021/07/18 01:37:23;;;;;;;1.90;1.80;;;22.50;64.80;;;;;;5031717;28;20183;-67
2021/07/18 01:39:49;;;;;;;2.45;1.75;;;22.50;65.60;;;;;;5032705;28;20176;-68
2021/07/18 01:42:15;;;;;;;1.70;1.60;;;22.50;64.80;;;;;;5032123;28;20227;-69
2021/07/18 01:44:42;;;;;;;1.52;1.42;;;22.40;64.70;;;;;;5031985;28;20175;-68
2021/07/18 01:47:08;;;;;;;2.00;1.83;;;22.40;64.70;;;;;;5032552;28;20184;-68
2021/07/18 01:49:33;;;;;;;1.90;1.80;;;22.40;64.80;;;;;;5033416;28;20196;-68
2021/07/18 01:51:58;;;;;;;2.33;1.92;;;22.40;64.80;;;;;;5035456;28;20211;-68
2021/07/18 01:54:24;;;;;;;1.77;1.67;;;22.40;64.80;;;;;;5036034;28;20179;-68
2021/07/18 01:56:49;;;;;;;2.05;1.85;;;22.40;64.80;;;;;;5035816;28;20183;-67
2021/07/18 01:59:15;;;;;;;1.48;1.38;;;22.40;64.80;;;;;;5035441;28;20513;-67
2021/07/18 02:01:41;;;;;;;1.63;1.52;;;22.50;64.90;;;;;;5035973;28;20180;-67
2021/07/18 02:04:06;;;;;;;1.60;1.50;;;22.40;64.90;;;;;;5035993;28;20178;-68
2021/07/18 02:06:32;;;;;;;2.45;1.60;;;22.40;64.80;;;;;;5034972;28;20535;-67
2021/07/18 02:08:58;;;;;;;1.70;1.60;;;22.40;64.90;;;;;;5035672;28;20180;-68
2021/07/18 02:11:24;;;;;;;1.60;1.38;;;22.40;64.90;;;;;;5035485;28;20270;-67
2021/07/18 02:13:51;;;;;;;1.80;1.60;;;22.40;64.90;;;;;;5035437;28;20191;-68
2021/07/18 02:16:17;;;;;;;1.98;1.50;;;22.40;64.90;;;;;;5035155;28;20188;-68
2021/07/18 02:18:43;;;;;;;1.92;1.73;;;22.40;64.90;;;;;;5035426;28;20178;-69
2021/07/18 02:21:08;;;;;;;1.70;1.60;;;22.40;64.90;;;;;;5034993;28;20271;-69
2021/07/18 02:23:34;;;;;;;1.55;1.45;;;22.40;65.00;;;;;;5001315;28;20250;-69
2021/07/18 02:26:00;;;;;;;2.00;1.80;;;22.40;65.00;;;;;;5034909;28;20238;-68
2021/07/18 02:28:25;;;;;;;1.52;1.42;;;22.40;65.80;;;;;;5035262;28;20171;-67
2021/07/18 02:30:53;;;;;;;1.52;1.42;;;22.40;65.00;;;;;;5035252;28;20226;-68
2021/07/18 02:33:19;;;;;;;2.08;1.77;;;22.40;65.00;;;;;;5034613;28;20586;-68
2021/07/18 02:35:44;;;;;;;1.50;1.40;;;22.40;65.00;;;;;;5035167;28;20654;-67
2021/07/18 02:38:10;;;;;;;1.73;1.63;;;22.40;65.00;;;;;;5035355;28;20195;-68
2021/07/18 02:40:38;;;;;;;1.70;1.60;;;22.30;64.90;;;;;;5034570;28;20187;-69
2021/07/18 02:43:03;;;;;;;1.65;1.55;;;22.30;64.90;;;;;;5035072;28;20223;-68
2021/07/18 02:45:30;;;;;;;1.90;1.40;;;22.30;64.90;;;;;;5034690;28;20703;-68
2021/07/18 02:47:56;;;;;;;2.40;1.60;;;22.30;64.90;;;;;;5034483;28;20187;-68
2021/07/18 02:50:24;;;;;;;2.25;1.50;;;22.30;64.90;;;;;;5034733;28;20176;-70
2021/07/18 02:52:49;;;;;;;2.17;1.90;;;22.30;64.90;;;;;;5034955;28;20226;-68
2021/07/18 02:55:15;;;;;;;1.75;1.65;;;22.30;65.00;;;;;;5034509;28;20168;-68
2021/07/18 02:57:40;;;;;;;1.50;1.40;;;22.30;65.00;;;;;;5034750;28;20182;-68
2021/07/18 03:00:07;;;;;;;2.17;1.58;;;22.30;65.00;;;;;;5034547;28;20176;-68
2021/07/18 03:02:32;;;;;;;1.42;1.40;;;22.30;65.00;;;;;;5033452;28;20172;-68
2021/07/18 03:04:58;;;;;;;1.60;1.50;;;22.30;64.90;;;;;;5034676;28;20705;-68
2021/07/18 03:07:23;;;;;;;2.58;1.50;;;22.30;65.00;;;;;;5034557;28;20270;-69
2021/07/18 03:09:49;;;;;;;1.88;1.77;;;22.30;65.00;;;;;;5034261;28;20182;-68
2021/07/18 03:12:14;;;;;;;1.73;1.63;;;22.30;65.00;;;;;;5034240;28;20207;-68
2021/07/18 03:14:40;;;;;;;1.60;1.50;;;22.30;65.90;;;;;;5034380;28;20585;-69
2021/07/18 03:17:10;;;;;;;1.70;1.60;;;22.30;65.00;;;;;;5034261;28;20546;-69
2021/07/18 03:19:38;;;;;;;1.70;1.60;;;22.30;65.10;;;;;;5033969;28;20519;-69
2021/07/18 03:22:03;;;;;;;1.70;1.60;;;22.30;65.00;;;;;;5034698;28;20233;-68
2021/07/18 03:24:29;;;;;;;1.80;1.42;;;22.30;65.10;;;;;;5033698;28;20622;-68
2021/07/18 03:26:54;;;;;;;1.50;1.40;;;22.30;65.10;;;;;;5034099;28;20553;-67
2021/07/18 03:29:20;;;;;;;1.50;1.40;;;22.30;65.10;;;;;;5033609;28;20172;-67
2021/07/18 03:31:48;;;;;;;1.80;1.60;;;22.30;65.10;;;;;;5034166;28;20242;-69
2021/07/18 03:34:14;;;;;;;1.90;1.50;;;22.30;65.10;;;;;;5034060;28;20179;-68
2021/07/18 03:36:39;;;;;;;1.50;1.40;;;22.30;65.10;;;;;;5033354;28;20519;-68
2021/07/18 03:39:07;;;;;;;1.40;1.30;;;22.30;65.10;;;;;;5034160;28;20182;-70
2021/07/18 03:41:33;;;;;;;1.48;1.38;;;22.30;65.10;;;;;;5033619;28;20214;-68
2021/07/18 03:43:58;;;;;;;1.95;1.75;;;22.20;65.00;;;;;;5033598;28;20614;-69
2021/07/18 03:46:24;;;;;;;1.52;1.42;;;22.30;65.10;;;;;;5034100;28;20172;-68
2021/07/18 03:48:49;;;;;;;1.42;1.33;;;22.20;65.10;;;;;;5033727;28;20180;-68
2021/07/18 03:51:15;;;;;;;1.50;1.40;;;22.20;65.10;;;;;;5033792;28;20176;-68
2021/07/18 03:53:40;;;;;;;1.50;1.40;;;22.20;65.10;;;;;;5034009;28;20172;-68
2021/07/18 03:56:07;;;;;;;1.20;1.20;;;22.20;65.10;;;;;;5033825;28;20176;-68
2021/07/18 03:58:33;;;;;;;1.73;1.58;;;22.20;65.10;;;;;;5033480;28;20179;-68
2021/07/18 04:00:58;;;;;;;1.50;1.40;;;22.30;65.10;;;;;;5033603;28;20259;-68
2021/07/18 04:03:24;;;;;;;1.52;1.40;;;22.20;65.10;;;;;;5033344;28;20210;-68
2021/07/18 04:05:49;;;;;;;1.13;1.13;;;22.20;65.10;;;;;;5033342;28;20180;-69
2021/07/18 04:08:16;;;;;;;1.23;1.13;;;22.20;65.10;;;;;;5016194;28;20204;-68
2021/07/18 04:10:42;;;;;;;2.25;1.35;;;22.20;65.10;;;;;;5033616;28;20259;-68
2021/07/18 04:13:08;;;;;;;1.40;1.30;;;22.20;65.10;;;;;;5032869;28;20306;-68
2021/07/18 04:15:34;;;;;;;1.27;1.17;;;22.20;65.10;;;;;;5033053;28;20267;-68
2021/07/18 04:18:08;;;;;;;1.58;1.38;;;22.20;65.10;;;;;;5033284;28;20182;-68
2021/07/18 04:20:34;;;;;;;1.30;1.20;;;22.20;65.00;;;;;;5032640;28;20592;-68
2021/07/18 04:22:59;;;;;;;1.23;1.13;;;22.20;65.00;;;;;;5033305;28;20270;-68
2021/07/18 04:25:25;;;;;;;1.45;1.35;;;22.30;65.10;;;;;;5033075;28;20182;-68
2021/07/18 04:27:51;;;;;;;1.75;1.40;;;22.30;65.10;;;;;;5032699;28;20229;-67
2021/07/18 04:30:16;;;;;;;1.35;1.33;;;22.30;65.00;;;;;;5032736;28;20247;-66
2021/07/18 04:32:42;;;;;;;1.10;1.10;;;22.30;65.00;;;;;;5032480;28;20214;-67
2021/07/18 04:35:08;;;;;;;1.30;1.20;;;22.30;65.00;;;;;;5033195;28;20630;-68
2021/07/18 04:37:36;;;;;;;1.83;1.73;;;22.30;65.20;;;;;;5015060;28;20184;-68
2021/07/18 04:40:03;;;;;;;1.40;1.30;;;22.30;65.00;;;;;;5032693;28;20234;-67
2021/07/18 04:42:28;;;;;;;1.05;1.05;;;22.30;65.00;;;;;;5032363;28;20235;-68
2021/07/18 04:44:54;;;;;;;1.40;1.30;;;22.30;65.00;;;;;;5032812;28;20226;-68
2021/07/18 04:47:19;;;;;;;1.65;1.20;;;22.30;65.00;;;;;;5032397;28;20172;-68
2021/07/18 04:49:45;;;;;;;1.52;1.30;;;22.30;65.00;;;;;;5033322;28;20172;-68
2021/07/18 04:52:10;;;;;;;1.17;1.17;;;22.30;65.00;;;;;;5033108;28;20208;-67
2021/07/18 04:54:36;;;;;;;1.50;1.40;;;22.30;65.00;;;;;;5032421;28;20618;-68
2021/07/18 04:57:01;;;;;;;1.20;1.20;;;22.30;65.00;;;;;;5032911;28;20179;-67
2021/07/18 04:59:27;;;;;;;2.05;1.55;;;22.30;65.00;;;;;;5032689;28;20176;-68
2021/07/18 05:01:54;;;;;;;1.00;1.00;;;22.30;65.00;;;;;;5032253;28;20184;-67
2021/07/18 05:04:19;;;;;;;1.30;1.20;;;22.30;65.00;;;;;;5032551;28;20290;-68
2021/07/18 05:06:45;;;;;;;1.00;1.00;;;22.30;65.00;;;;;;5032954;28;20652;-69
2021/07/18 05:09:10;;;;;;;1.60;1.40;;;22.30;65.00;;;;;;5032741;28;20258;-67
2021/07/18 05:11:36;;;;;;;1.63;1.52;;;22.30;65.00;;;;;;5032606;28;20212;-67
2021/07/18 05:14:01;;;;;;;1.20;1.10;;;22.30;65.00;;;;;;5032917;28;20168;-67
2021/07/18 05:16:27;;;;;;;1.63;1.20;;;22.30;65.00;;;;;;5031713;28;20175;-68
2021/07/18 05:18:52;;;;;;;1.52;1.42;;;22.30;65.00;;;;;;5032732;28;20172;-69
2021/07/18 05:21:18;;;;;;;1.20;1.20;;;22.30;65.00;;;;;;5032675;28;20318;-68
2021/07/18 05:23:43;;;;;;;1.10;1.10;;;22.30;65.00;;;;;;5032857;28;20299;-68
2021/07/18 05:26:09;;;;;;;1.58;1.02;;;22.30;64.90;;;;;;5036627;28;20629;-67
2021/07/18 05:28:34;;;;;;;1.10;1.00;;;22.30;65.00;;;;;;5036488;28;20303;-67
2021/07/18 05:31:00;;;;;;;1.30;1.25;;;22.30;64.90;;;;;;5036322;28;20634;-67
2021/07/18 05:33:25;;;;;;;1.27;1.17;;;22.30;64.90;;;;;;5036274;28;20220;-67
2021/07/18 05:35:52;;;;;;;1.30;1.25;;;22.30;64.90;;;;;;5036160;28;20172;-68
2021/07/18 05:38:18;;;;;;;1.38;1.27;;;22.30;65.00;;;;;;5036696;28;20208;-68
2021/07/18 05:40:43;;;;;;;1.40;1.20;;;22.30;64.90;;;;;;5018484;28;20277;-68
2021/07/18 05:43:09;;;;;;;1.30;1.20;;;22.30;64.90;;;;;;5035639;28;20233;-68
2021/07/18 05:45:34;;;;;;;1.30;1.20;;;22.30;64.90;;;;;;5035940;28;20182;-67
2021/07/18 05:48:00;;;;;;;1.30;1.20;;;22.30;65.00;;;;;;5036215;28;20172;-67
2021/07/18 05:50:25;;;;;;;1.00;1.00;;;22.30;65.00;;;;;;5035700;28;20516;-67
2021/07/18 05:52:51;;;;;;;1.05;1.02;;;22.30;65.00;;;;;;5035985;28;20215;-67
2021/07/18 05:55:16;;;;;;;1.60;1.50;;;22.30;65.00;;;;;;5035726;28;20172;-68
2021/07/18 05:57:42;;;;;;;1.40;1.30;;;22.30;65.00;;;;;;5035602;28;20180;-66
2021/07/18 06:00:09;;;;;;;1.58;1.48;;;22.30;65.00;;;;;;5036010;28;20176;-68
2021/07/18 06:02:35;;;;;;;1.35;1.25;;;22.40;65.20;;;;;;5036116;28;20176;-67
2021/07/18 06:05:00;;;;;;;1.48;1.38;;;22.40;65.10;;;;;;5035784;28;20645;-68
2021/07/18 06:07:26;;;;;;;1.52;1.42;;;22.40;65.10;;;;;;5035508;28;20532;-68
2021/07/18 06:09:51;;;;;;;1.27;1.20;;;22.40;65.10;;;;;;5035722;28;20629;-67
2021/07/18 06:12:17;;;;;;;1.52;1.42;;;22.40;65.10;;;;;;5035344;28;20211;-67
2021/07/18 06:14:43;;;;;;;1.38;1.38;;;22.40;65.20;;;;;;5035866;28;20187;-68
2021/07/18 06:17:10;;;;;;;1.10;1.10;;;22.30;65.10;;;;;;5036740;28;20176;-69
2021/07/18 06:19:36;;;;;;;1.05;1.05;;;22.40;65.10;;;;;;5035629;28;20270;-68
2021/07/18 06:22:01;;;;;;;1.40;1.30;;;22.40;65.20;;;;;;5035437;28;20211;-68
2021/07/18 06:24:27;;;;;;;1.20;1.20;;;22.40;65.10;;;;;;5035659;28;20176;-69
2021/07/18 06:26:53;;;;;;;1.30;1.20;;;22.40;65.10;;;;;;5034984;28;20734;-67
2021/07/18 06:29:24;;;;;;;1.27;1.17;;;22.40;65.20;;;;;;5035180;28;20182;-67
2021/07/18 06:31:49;;;;;;;1.50;1.40;;;22.40;65.10;;;;;;5035443;28;20673;-68
2021/07/18 06:34:15;;;;;;;1.30;1.30;;;22.40;65.10;;;;;;5034775;28;20214;-67
2021/07/18 06:36:40;;;;;;;1.23;1.23;;;22.40;65.10;;;;;;5033706;28;20172;-68
2021/07/18 06:39:06;;;;;;;1.50;1.30;;;22.40;65.10;;;;;;5035399;28;20180;-68
2021/07/18 06:41:31;;;;;;;1.30;1.20;;;22.40;65.10;;;;;;5034435;28;20168;-68
2021/07/18 06:43:57;;;;;;;1.27;1.17;;;22.40;65.10;;;;;;5035137;28;20290;-68
2021/07/18 06:46:22;;;;;;;1.30;1.30;;;22.40;65.10;;;;;;5034450;28;20176;-68
2021/07/18 06:48:48;;;;;;;1.20;1.20;;;22.50;65.10;;;;;;5035389;28;20183;-68
2021/07/18 06:51:13;;;;;;;1.50;1.40;;;22.50;65.10;;;;;;5034952;28;20207;-68
2021/07/18 06:53:39;;;;;;;1.42;1.33;;;22.50;65.10;;;;;;5034520;28;20188;-68
2021/07/18 06:56:04;;;;;;;1.60;1.50;;;22.50;65.10;;;;;;5034787;28;20184;-68
2021/07/18 06:58:30;;;;;;;1.50;1.38;;;22.50;65.10;;;;;;5034368;28;20171;-68
2021/07/18 07:00:55;;;;;;;1.00;1.00;;;22.50;65.10;;;;;;5034201;28;20172;-69
2021/07/18 07:03:21;;;;;;;1.25;1.25;;;22.50;65.20;;;;;;5034424;28;20177;-69
2021/07/18 07:05:46;;;;;;;1.25;1.10;;;22.50;65.10;;;;;;5034942;28;20752;-68
2021/07/18 07:08:12;;;;;;;1.35;1.25;;;22.50;65.20;;;;;;5034382;28;20660;-61
2021/07/18 07:10:38;;;;;;;1.40;1.30;;;22.50;65.20;;;;;;5034003;28;20691;-67
2021/07/18 07:13:03;;;;;;;1.55;1.45;;;22.60;65.60;;;;;;5034452;28;20628;-67
2021/07/18 07:15:29;;;;;;;2.25;1.33;;;22.60;65.50;;;;;;5033957;28;20168;-68
2021/07/18 07:17:55;;;;;;;1.50;1.40;;;22.60;65.40;;;;;;5034182;28;20187;-69
2021/07/18 07:20:20;;;;;;;1.30;1.20;;;22.60;65.40;;;;;;5034257;28;20172;-67
2021/07/18 07:22:46;;;;;;;1.38;1.27;;;22.60;65.40;;;;;;5033895;28;20255;-68
2021/07/18 07:25:13;;;;;;;1.23;1.13;;;22.60;65.40;;;;;;5034217;28;20571;-67
2021/07/18 07:27:39;;;;;;;1.50;1.40;;;22.60;65.40;;;;;;5033880;28;20180;-67
2021/07/18 07:30:06;;;;;;;1.45;1.35;;;22.70;65.50;;;;;;5033942;28;20188;-66
2021/07/18 07:32:32;;;;;;;1.30;1.20;;;22.70;65.40;;;;;;5033857;28;20269;-66
2021/07/18 07:34:57;;;;;;;1.30;1.20;;;22.70;65.30;;;;;;5034204;28;20263;-68
2021/07/18 07:37:24;;;;;;;1.33;1.23;;;22.70;65.40;;;;;;5033404;28;20253;-73
2021/07/18 07:39:51;;;;;;;1.67;1.30;;;22.70;65.30;;;;;;5033852;28;20180;-68
2021/07/18 07:42:18;;;;;;;1.52;1.10;;;22.70;65.50;;;;;;5036169;28;20223;-68
2021/07/18 07:44:43;;;;;;;1.83;1.48;;;22.80;65.40;;;;;;5039333;28;20530;-68
2021/07/18 07:47:09;;;;;;;1.45;1.35;;;22.80;65.40;;;;;;5033441;28;20263;-66
2021/07/18 07:49:34;;;;;;;2.53;1.17;;;22.80;65.40;;;;;;5033846;28;20180;-67
2021/07/18 07:52:00;;;;;;;1.60;1.50;;;22.80;65.40;;;;;;5053763;28;20191;-68
2021/07/18 07:54:25;;;;;;;1.35;1.25;;;22.80;65.30;;;;;;5053057;28;20174;-68
2021/07/18 07:56:51;;;;;;;1.20;1.10;;;22.90;65.30;;;;;;5053401;28;20179;-65
2021/07/18 07:59:16;;;;;;;1.73;1.35;;;22.90;65.40;;;;;;5042968;28;20172;-66
2021/07/18 08:01:42;;;;;;;1.52;1.40;;;22.90;65.30;;;;;;5033569;28;20172;-66
2021/07/18 08:04:07;;;;;;;1.48;1.25;;;22.90;65.30;;;;;;5032991;28;20180;-66
2021/07/18 08:06:33;;;;;;;1.17;1.08;;;22.90;65.30;;;;;;5033119;28;20538;-67
2021/07/18 08:08:58;;;;;;;1.73;1.20;;;22.90;65.30;;;;;;5033599;28;20168;-68
2021/07/18 08:11:24;;;;;;;1.20;1.10;;;22.90;65.30;;;;;;5032281;28;20230;-67
2021/07/18 08:13:49;;;;;;;1.40;1.30;;;22.90;65.20;;;;;;5033161;28;20179;-68
2021/07/18 08:16:15;;;;;;;1.60;1.50;;;22.90;65.20;;;;;;5043127;28;20566;-68
2021/07/18 08:18:40;;;;;;;1.20;1.10;;;23.00;65.20;;;;;;5052745;28;20207;-70
2021/07/18 08:21:06;;;;;;;2.88;1.73;;;23.00;65.20;;;;;;5053127;28;20175;-68
2021/07/18 08:23:32;;;;;;;1.98;1.58;;;23.00;65.20;;;;;;5052987;28;20281;-67
2021/07/18 08:25:57;;;;;;;1.23;1.13;;;23.00;65.20;;;;;;5052590;28;20262;-67
2021/07/18 08:28:24;;;;;;;1.98;1.45;;;23.00;65.10;;;;;;5052868;28;20171;-66
2021/07/18 08:30:50;;;;;;;1.48;1.38;;;23.10;65.20;;;;;;5053230;28;20175;-67
2021/07/18 08:33:16;;;;;;;2.15;1.25;;;23.10;65.10;;;;;;5052143;28;20680;-67
2021/07/18 08:35:41;;;;;;;1.63;1.52;;;23.10;65.10;;;;;;5053077;28;20179;-67
2021/07/18 08:38:07;;;;;;;2.17;1.40;;;23.10;65.10;;;;;;5053027;28;20179;-67
2021/07/18 08:40:34;;;;;;;1.40;1.30;;;23.10;65.00;;;;;;5052249;28;20171;-68
2021/07/18 08:43:00;;;;;;;1.30;1.20;;;23.10;65.00;;;;;;5052601;28;20229;-67
2021/07/18 08:45:25;;;;;;;3.17;1.60;;;23.20;65.10;;;;;;5051556;28;20220;-67
2021/07/18 08:47:51;;;;;;;2.55;1.63;;;23.20;65.20;;;;;;5052042;28;20596;-67
2021/07/18 08:50:16;;;;;;;2.03;1.63;;;23.20;65.00;;;;;;5042319;28;20629;-67
2021/07/18 08:52:46;;;;;;;1.75;1.60;;;23.20;65.00;;;;;;5032911;28;20242;-67
2021/07/18 08:55:11;;;;;;;1.77;1.50;;;23.20;65.00;;;;;;5014948;28;20650;-66
2021/07/18 08:57:38;;;;;;;1.52;1.20;;;23.30;65.10;;;;;;5014744;28;20251;-66
2021/07/18 09:00:04;;;;;;;2.45;1.52;;;23.30;65.10;;;;;;5031385;28;20545;-66
2021/07/18 09:02:30;;;;;;;1.58;1.45;;;23.30;65.10;;;;;;5032203;28;20634;-65
2021/07/18 09:04:56;;;;;;;2.08;1.90;;;23.30;65.10;;;;;;5032770;28;20182;-66
2021/07/18 09:07:22;;;;;;;1.55;1.45;;;23.30;65.10;;;;;;5031988;28;20266;-66
2021/07/18 09:09:49;;;;;;;1.65;1.55;;;23.40;65.10;;;;;;5015067;28;20196;-66
2021/07/18 09:12:14;;;;;;;1.80;1.33;;;23.40;65.10;;;;;;5032844;28;20290;-66
2021/07/18 09:14:46;;;;;;;1.70;1.60;;;23.40;65.20;;;;;;5014474;28;20195;-66
2021/07/18 09:17:14;;;;;;;2.22;1.70;;;23.40;65.20;;;;;;5032562;28;20270;-67
2021/07/18 09:19:41;;;;;;;2.58;1.48;;;23.40;65.20;;;;;;5032338;28;20175;-67
2021/07/18 09:22:23;;;;;;;1.80;1.70;;;23.50;65.20;;;;;;5032331;28;20630;-66
2021/07/18 09:24:52;;;;;;;1.73;1.60;;;23.40;65.20;;;;;;5032550;28;20206;-66
2021/07/18 09:27:25;;;;;;;1.63;1.52;;;23.40;65.30;;;;;;5032176;28;20562;-66
2021/07/18 09:30:03;;;;;;;2.13;1.63;;;23.40;65.40;;;;;;5032162;28;20176;-65
2021/07/18 09:32:29;;;;;;;2.03;1.92;;;23.50;65.40;;;;;;5026756;28;20216;-65
2021/07/18 09:35:00;;;;;;;3.40;1.90;;;23.40;65.40;;;;;;5023126;28;20176;-66
2021/07/18 09:37:29;;;;;;;2.55;1.60;;;23.50;65.50;;;;;;5021379;28;20176;-67
2021/07/18 09:40:02;;;;;;;2.08;1.70;;;23.50;65.40;;;;;;5021193;28;20172;-67
2021/07/18 09:42:42;;;;;;;2.13;1.70;;;23.50;65.20;;;;;;5020925;28;20217;-66
2021/07/18 09:45:29;;;;;;;2.55;1.70;;;23.60;65.30;;;;;;5021704;28;20172;-67
2021/07/18 09:47:58;;;;;;;1.65;1.55;;;23.60;65.30;;;;;;5025387;28;20254;-66
2021/07/18 09:50:35;;;;;;;3.05;1.80;;;23.60;65.30;;;;;;5033687;28;20186;-68
2021/07/18 09:53:24;;;;;;;2.75;2.17;;;23.60;65.30;;;;;;5051726;28;20211;-70
2021/07/18 09:56:22;;;;;;;2.15;1.85;;;23.60;65.20;;;;;;5041604;28;20184;-70
2021/07/18 09:58:52;;;;;;;1.63;1.52;;;23.60;65.20;;;;;;5008508;28;20190;-69
2021/07/18 10:01:18;;;;;;;2.88;1.63;;;23.70;65.20;;;;;;5051806;28;20183;-70
2021/07/18 10:03:54;;;;;;;3.03;1.80;;;23.70;65.20;;;;;;5051489;28;20175;-71
2021/07/18 10:06:21;;;;;;;1.67;1.52;;;23.70;65.20;;;;;;5051829;28;20186;-68
2021/07/18 10:08:54;;;;;;;2.33;1.95;;;23.70;65.10;;;;;;5050917;28;20743;-67
2021/07/18 10:11:21;;;;;;;2.80;1.90;;;23.80;65.00;;;;;;5053908;28;20206;-68
2021/07/18 10:13:48;;;;;;;2.17;1.50;;;23.70;64.90;;;;;;5055582;28;20179;-68
2021/07/18 10:16:14;;;;;;;4.20;1.70;;;23.80;64.90;;;;;;5055703;28;20245;-68
2021/07/18 10:18:41;;;;;;;2.22;2.03;;;23.80;64.80;;;;;;5054694;28;20702;-66
2021/07/18 10:21:07;;;;;;;2.63;1.67;;;23.80;64.80;;;;;;5055285;28;20668;-67
2021/07/18 10:23:38;;;;;;;2.00;1.83;;;23.90;64.70;;;;;;5055042;28;20175;-67
2021/07/18 10:26:03;;;;;;;2.15;1.95;;;23.90;64.70;;;;;;5055141;28;20179;-66
2021/07/18 10:28:29;;;;;;;1.88;1.77;;;23.90;64.60;;;;;;5054880;28;20175;-66
2021/07/18 10:30:58;;;;;;;1.98;1.50;;;23.90;65.50;;;;;;5055247;28;20221;-66
2021/07/18 10:33:24;;;;;;;1.67;1.58;;;23.90;64.60;;;;;;5053539;28;20222;-66
2021/07/18 10:35:50;;;;;;;2.60;1.77;;;23.90;64.70;;;;;;5053991;28;20552;-66
2021/07/18 10:38:17;;;;;;;1.55;1.40;;;23.90;64.70;;;;;;5054875;28;20211;-65
2021/07/18 10:40:55;;;;;;;2.47;2.00;;;23.90;64.60;;;;;;5054894;28;20179;-66
2021/07/18 10:43:49;;;;;;;3.00;2.03;;;23.90;64.60;;;;;;5054253;28;20231;-66
2021/07/18 10:46:15;;;;;;;4.63;1.70;;;24.00;64.60;;;;;;5054601;28;20175;-66
2021/07/18 10:48:48;;;;;;;1.70;1.60;;;24.00;64.50;;;;;;5054839;28;20179;-66
2021/07/18 10:51:20;;;;;;;1.80;1.70;;;24.00;64.70;;;;;;5038425;28;20211;-66
2021/07/18 10:53:48;;;;;;;2.72;1.77;;;24.00;64.70;;;;;;5034449;28;20227;-67
2021/07/18 10:56:18;;;;;;;1.70;1.20;;;24.00;64.70;;;;;;5034954;28;20200;-66
2021/07/18 10:58:46;;;;;;;2.08;1.92;;;24.00;64.80;;;;;;5034939;28;20187;-66
2021/07/18 11:01:11;;;;;;;1.95;1.80;;;23.90;64.70;;;;;;5034357;28;20172;-67
2021/07/18 11:03:43;;;;;;;1.73;1.63;;;24.00;64.80;;;;;;5034277;28;20175;-67
2021/07/18 11:06:22;;;;;;;1.92;1.83;;;24.00;64.80;;;;;;5034925;28;20184;-67
2021/07/18 11:09:06;;;;;;;2.88;1.77;;;24.00;64.80;;;;;;5034124;28;20175;-66
2021/07/18 11:11:42;;;;;;;1.92;1.45;;;24.00;64.90;;;;;;5034473;28;20179;-67
2021/07/18 11:14:43;;;;;;;1.80;1.70;;;24.00;64.80;;;;;;5034050;28;20180;-69
2021/07/18 11:17:23;;;;;;;2.20;1.75;;;24.00;64.70;;;;;;4973502;28;20297;-70
2021/07/18 11:19:58;;;;;;;2.05;1.95;;;24.00;64.50;;;;;;5012364;28;20643;-69
2021/07/18 11:23:03;;;;;;;1.65;1.55;;;24.00;64.50;;;;;;5032997;28;20340;-69
2021/07/18 11:25:46;;;;;;;3.63;1.83;;;24.00;64.50;;;;;;5033783;28;20262;-69
2021/07/18 11:28:35;;;;;;;2.95;2.15;;;24.10;64.40;;;;;;5033857;28;20175;-67
2021/07/18 11:31:27;;;;;;;2.33;1.85;;;24.10;64.30;;;;;;5034190;28;20195;-69
2021/07/18 11:33:59;;;;;;;1.92;1.73;;;24.10;65.20;;;;;;5027665;28;20191;-70
2021/07/18 11:36:30;;;;;;;1.90;1.80;;;24.10;64.30;;;;;;5033332;28;20187;-69
2021/07/18 11:38:56;;;;;;;2.95;2.13;;;24.10;64.30;;;;;;5033836;28;20257;-70
2021/07/18 11:41:23;;;;;;;2.28;2.08;;;24.10;64.30;;;;;;5033963;28;20204;-71
2021/07/18 11:43:50;;;;;;;3.33;2.10;;;24.10;64.30;;;;;;5033254;28;20230;-70
2021/07/18 11:46:17;;;;;;;2.17;2.03;;;24.10;65.10;;;;;;5033514;28;20564;-65
2021/07/18 11:48:43;;;;;;;2.50;1.90;;;24.20;64.30;;;;;;5029881;28;20206;-70
2021/07/18 11:51:13;;;;;;;2.15;1.90;;;24.20;64.30;;;;;;5049004;28;20521;-70
2021/07/18 11:53:46;;;;;;;2.08;1.95;;;24.20;64.10;;;;;;5053423;28;20230;-70
2021/07/18 11:56:28;;;;;;;3.47;1.80;;;24.20;64.00;;;;;;5053236;28;20171;-70
2021/07/18 11:58:58;;;;;;;1.98;1.85;;;24.20;63.90;;;;;;5053567;28;20229;-71
2021/07/18 12:01:28;;;;;;;2.65;2.22;;;24.20;63.80;;;;;;5053541;28;20182;-70
2021/07/18 12:03:54;;;;;;;3.58;2.17;;;24.30;63.70;;;;;;5052957;28;20522;-70
2021/07/18 12:06:20;;;;;;;2.40;2.20;;;24.30;63.70;;;;;;5053083;28;20171;-71
2021/07/18 12:08:45;;;;;;;2.85;1.95;;;24.30;63.50;;;;;;5052463;28;20171;-70
2021/07/18 12:11:13;;;;;;;3.50;2.47;;;24.30;63.50;;;;;;5053042;28;20524;-70
2021/07/18 12:13:43;;;;;;;1.95;1.85;;;24.30;63.40;;;;;;5053008;28;20217;-69
2021/07/18 12:16:08;;;;;;;2.22;2.05;;;24.30;63.40;;;;;;5052112;28;20179;-70
2021/07/18 12:18:34;;;;;;;2.45;2.13;;;24.30;63.30;;;;;;5052789;28;20178;-70
2021/07/18 12:21:20;;;;;;;2.20;2.00;;;24.40;63.30;;;;;;5053140;28;20626;-70
2021/07/18 12:24:12;;;;;;;2.22;2.10;;;24.40;63.20;;;;;;5052898;28;20175;-69
2021/07/18 12:26:38;;;;;;;2.50;2.30;;;24.40;63.10;;;;;;5052721;28;20182;-68
2021/07/18 12:29:04;;;;;;;2.95;2.42;;;24.40;63.10;;;;;;5053260;28;20182;-67
2021/07/18 12:31:30;;;;;;;2.10;1.90;;;24.40;63.00;;;;;;5052159;28;20172;-68
2021/07/18 12:33:55;;;;;;;3.88;2.20;;;24.50;62.90;;;;;;5053004;28;20175;-69
2021/07/18 12:36:21;;;;;;;2.20;2.10;;;24.50;62.90;;;;;;5052894;28;20528;-68
2021/07/18 12:38:46;;;;;;;2.50;2.30;;;24.50;62.90;;;;;;5052611;28;20221;-69
2021/07/18 12:41:12;;;;;;;2.50;2.30;;;24.50;62.70;;;;;;5052849;28;20178;-68
2021/07/18 12:43:38;;;;;;;2.78;2.47;;;24.50;62.70;;;;;;5052560;28;20227;-69
2021/07/18 12:46:04;;;;;;;2.58;2.38;;;24.50;62.60;;;;;;5052425;28;20179;-68
2021/07/18 12:48:29;;;;;;;2.67;2.47;;;24.60;62.60;;;;;;5052208;28;20170;-68